Time;durP1;ratioP1;P1;durP2;ratioP2;P2;SDS_P1;SDS_P2;PMS_P1;PMS_P2;Temp;Humidity;BMP_temperature;BMP_pressure;BME280_temperature;BME280_humidity;BME280_pressure;Samples;Min_cycle;Max_cycle;Signal;HPM_P1;HPM_P2
2022/04/17 00:00:29;;;;;;;115.88;59.97;;;6.00;94.30;;;;;;4989039;28;20152;-64
2022/04/17 00:02:56;;;;;;;118.15;58.90;;;6.00;93.20;;;;;;5005418;28;20049;-64
2022/04/17 00:05:21;;;;;;;122.03;60.90;;;5.90;91.80;;;;;;5005707;28;20046;-64
2022/04/17 00:07:47;;;;;;;124.15;61.47;;;5.90;91.30;;;;;;5007222;28;20092;-64
2022/04/17 00:10:13;;;;;;;129.95;60.75;;;5.90;89.30;;;;;;5005758;28;20054;-64
2022/04/17 00:12:40;;;;;;;120.05;58.17;;;5.90;87.20;;;;;;5007415;28;20092;-64
2022/04/17 00:15:07;;;;;;;120.38;59.67;;;6.00;82.60;;;;;;4987682;28;20060;-64
2022/04/17 00:17:33;;;;;;;110.57;59.28;;;6.00;82.60;;;;;;4972968;28;20050;-64
2022/04/17 00:19:59;;;;;;;116.68;59.58;;;6.00;80.60;;;;;;5006254;28;20054;-64
2022/04/17 00:22:26;;;;;;;120.65;58.05;;;6.00;81.10;;;;;;4989237;28;20450;-64
2022/04/17 00:24:52;;;;;;;117.95;56.65;;;5.90;80.40;;;;;;5006435;28;20500;-64
2022/04/17 00:27:18;;;;;;;115.38;57.80;;;6.00;78.50;;;;;;5005909;28;20053;-64
2022/04/17 00:29:44;;;;;;;110.40;58.40;;;6.00;78.90;;;;;;5009260;28;20045;-64
2022/04/17 00:32:13;;;;;;;110.65;55.20;;;6.00;79.30;;;;;;4992600;28;20044;-64
2022/04/17 00:34:39;;;;;;;104.05;55.13;;;6.00;80.10;;;;;;5010996;28;20045;-64
2022/04/17 00:37:05;;;;;;;99.50;50.42;;;5.90;80.50;;;;;;4994285;28;20061;-64
2022/04/17 00:39:31;;;;;;;103.40;50.35;;;6.00;79.40;;;;;;4973059;28;20497;-64
2022/04/17 00:41:58;;;;;;;101.43;50.85;;;6.00;79.10;;;;;;4973717;28;20050;-64
2022/04/17 00:44:24;;;;;;;97.07;48.03;;;6.00;79.30;;;;;;4990088;28;20511;-64
2022/04/17 00:46:50;;;;;;;91.65;46.65;;;6.00;78.20;;;;;;4973350;28;20042;-64
2022/04/17 00:49:16;;;;;;;86.95;43.67;;;6.00;78.10;;;;;;4990132;28;20086;-64
2022/04/17 00:51:43;;;;;;;81.95;41.72;;;6.10;76.20;;;;;;4991395;28;20039;-64
2022/04/17 00:54:12;;;;;;;78.22;40.00;;;6.10;77.50;;;;;;4972358;28;20523;-64
2022/04/17 00:56:38;;;;;;;80.13;39.53;;;6.00;76.80;;;;;;4990585;28;20053;-64
2022/04/17 00:59:06;;;;;;;73.28;37.83;;;6.00;78.50;;;;;;4972384;28;20054;-64
2022/04/17 01:01:33;;;;;;;83.10;42.08;;;5.90;81.50;;;;;;4990593;28;20077;-64
2022/04/17 01:04:00;;;;;;;92.10;45.08;;;5.80;84.30;;;;;;4990623;28;20053;-64
2022/04/17 01:06:26;;;;;;;86.68;42.97;;;5.60;84.70;;;;;;4989906;28;20046;-64
2022/04/17 01:08:52;;;;;;;77.93;42.13;;;5.30;87.30;;;;;;4990841;28;20074;-64
2022/04/17 01:11:18;;;;;;;80.20;41.70;;;5.10;90.20;;;;;;4989764;28;20129;-64
2022/04/17 01:13:44;;;;;;;79.18;40.42;;;5.00;91.30;;;;;;4990460;28;20109;-64
2022/04/17 01:16:11;;;;;;;81.20;40.03;;;4.80;92.30;;;;;;4971984;28;20555;-64
2022/04/17 01:18:56;;;;;;;78.88;39.80;;;4.70;92.80;;;;;;4990088;28;20038;-64
2022/04/17 01:21:24;;;;;;;77.57;37.70;;;4.60;93.10;;;;;;4990279;28;20050;-64
2022/04/17 01:29:20;;;;;;;67.68;37.25;;;4.50;96.70;;;;;;4989210;28;20046;-64
2022/04/17 01:31:46;;;;;;;72.65;38.60;;;4.40;98.10;;;;;;4979952;28;20046;-64
2022/04/17 01:34:16;;;;;;;71.05;35.30;;;4.30;99.90;;;;;;5009403;28;20133;-64
2022/04/17 01:36:46;;;;;;;65.75;35.05;;;4.30;99.90;;;;;;5008855;28;20624;-64
2022/04/17 01:39:13;;;;;;;66.47;35.05;;;4.20;99.90;;;;;;4991739;28;20054;-64
2022/04/17 01:41:39;;;;;;;71.90;35.13;;;4.10;99.90;;;;;;4987842;28;20050;-64
2022/04/17 01:44:06;;;;;;;57.97;31.88;;;4.00;99.90;;;;;;4990555;28;20052;-64
2022/04/17 01:46:32;;;;;;;61.30;32.72;;;3.90;99.90;;;;;;4989763;28;20092;-64
2022/04/17 01:48:58;;;;;;;58.60;32.45;;;3.80;99.90;;;;;;4972001;28;20046;-64
2022/04/17 01:51:23;;;;;;;63.05;31.45;;;3.60;99.90;;;;;;4989254;28;20104;-64
2022/04/17 01:53:49;;;;;;;56.42;28.52;;;3.60;99.90;;;;;;4971846;28;20440;-64
2022/04/17 01:56:15;;;;;;;49.78;28.30;;;3.60;99.90;;;;;;4955702;28;20088;-64
2022/04/17 01:58:41;;;;;;;49.20;25.95;;;3.60;99.90;;;;;;4989233;28;20045;-64
2022/04/17 02:01:07;;;;;;;54.88;28.77;;;3.60;99.90;;;;;;4971927;28;20086;-64
2022/04/17 02:03:32;;;;;;;55.70;28.63;;;3.50;99.90;;;;;;4989300;28;20302;-64
2022/04/17 02:06:00;;;;;;;56.63;28.02;;;3.40;99.90;;;;;;4989446;28;20140;-64
2022/04/17 02:08:28;;;;;;;52.03;28.33;;;3.40;99.90;;;;;;4989071;28;20057;-64
2022/04/17 02:10:54;;;;;;;50.22;27.63;;;3.40;99.90;;;;;;4989124;28;20065;-64
2022/04/17 02:13:20;;;;;;;54.63;26.35;;;3.50;99.90;;;;;;4955541;28;20117;-64
2022/04/17 02:15:47;;;;;;;58.30;27.52;;;3.60;99.90;;;;;;4951736;28;20181;-64
2022/04/17 02:18:13;;;;;;;56.58;26.75;;;3.90;99.90;;;;;;4952531;28;20058;-64
2022/04/17 02:20:39;;;;;;;56.15;26.45;;;4.10;99.90;;;;;;4951887;28;20077;-64
2022/04/17 02:23:05;;;;;;;57.38;27.27;;;4.30;99.90;;;;;;4952659;28;20039;-64
2022/04/17 02:25:30;;;;;;;52.85;26.95;;;4.40;99.90;;;;;;4968817;28;20038;-64
2022/04/17 02:27:56;;;;;;;52.20;27.58;;;4.40;99.90;;;;;;4989132;28;20063;-64
2022/04/17 02:30:22;;;;;;;54.15;26.92;;;4.20;99.70;;;;;;4987977;28;20062;-64
2022/04/17 02:32:47;;;;;;;56.88;27.55;;;4.20;99.90;;;;;;4988182;28;20048;-64
2022/04/17 02:35:14;;;;;;;55.60;27.30;;;4.20;99.90;;;;;;4991179;28;20050;-64
2022/04/17 02:37:40;;;;;;;57.65;26.83;;;4.20;99.90;;;;;;5008106;28;20041;-64
2022/04/17 02:40:07;;;;;;;53.90;26.38;;;4.20;99.90;;;;;;4990735;28;20492;-64
2022/04/17 02:42:32;;;;;;;53.53;28.35;;;4.30;99.90;;;;;;4990171;28;20042;-64
2022/04/17 02:44:58;;;;;;;49.92;26.88;;;4.30;99.90;;;;;;4990818;28;20049;-64
2022/04/17 02:50:13;;;;;;;52.65;26.98;;;4.40;99.90;;;;;;4992800;28;20049;-64
2022/04/17 02:52:38;;;;;;;;;;;4.30;99.90;;;;;;5008879;28;20457;-64
2022/04/17 02:55:05;;;;;;;56.67;27.95;;;4.40;99.90;;;;;;4989761;28;20011;-64
2022/04/17 02:57:32;;;;;;;55.20;27.98;;;4.50;99.90;;;;;;4990095;28;20111;-63
2022/04/17 02:59:58;;;;;;;53.17;27.65;;;4.60;99.90;;;;;;5007758;28;20157;-64
2022/04/17 03:07:54;;;;;;;53.38;27.58;;;4.50;99.90;;;;;;5007049;28;20132;-64
2022/04/17 03:10:20;;;;;;;52.38;26.45;;;4.40;99.90;;;;;;4989974;28;20125;-64
2022/04/17 03:12:46;;;;;;;52.13;27.00;;;4.30;99.90;;;;;;4989699;28;20077;-64
2022/04/17 03:15:12;;;;;;;50.83;26.98;;;4.20;99.90;;;;;;4989731;28;20049;-64
2022/04/17 03:17:38;;;;;;;48.90;26.92;;;4.10;99.90;;;;;;5007684;28;20166;-64
2022/04/17 03:20:05;;;;;;;49.67;27.55;;;4.00;99.90;;;;;;4989808;28;20129;-64
2022/04/17 03:22:32;;;;;;;52.63;28.00;;;4.00;99.90;;;;;;5007571;28;20046;-64
2022/04/17 03:25:00;;;;;;;52.47;27.67;;;4.00;99.90;;;;;;5007213;28;20447;-64
2022/04/17 03:27:26;;;;;;;50.35;27.42;;;4.00;99.90;;;;;;4989470;28;20052;-64
2022/04/17 03:29:52;;;;;;;57.70;29.10;;;3.90;99.90;;;;;;4989428;28;20053;-64
2022/04/17 03:32:18;;;;;;;57.65;29.20;;;3.90;99.90;;;;;;5007178;28;20068;-64
2022/04/17 03:34:44;;;;;;;58.85;29.80;;;3.90;99.90;;;;;;5007135;28;20510;-64
2022/04/17 03:37:10;;;;;;;53.80;28.88;;;3.80;99.90;;;;;;5006929;28;20058;-64
2022/04/17 03:39:35;;;;;;;49.90;26.30;;;3.80;99.90;;;;;;5006821;28;20390;-64
2022/04/17 03:42:01;;;;;;;53.63;27.83;;;3.70;99.90;;;;;;5007222;28;20093;-64
2022/04/17 03:44:27;;;;;;;55.40;26.85;;;3.60;99.90;;;;;;5007151;28;20054;-64
2022/04/17 03:46:53;;;;;;;54.90;27.75;;;3.50;99.90;;;;;;5006691;28;20120;-64
2022/04/17 03:49:19;;;;;;;49.92;26.25;;;3.50;99.90;;;;;;4972929;28;20103;-64
2022/04/17 03:51:44;;;;;;;48.28;25.48;;;3.70;99.90;;;;;;5006872;28;20057;-64
2022/04/17 03:54:10;;;;;;;52.38;25.17;;;3.90;99.90;;;;;;4989751;28;20060;-64
2022/04/17 03:56:36;;;;;;;52.20;25.25;;;4.00;99.90;;;;;;4988935;28;20443;-64
2022/04/17 03:59:02;;;;;;;50.80;26.20;;;4.20;99.90;;;;;;4989101;28;20096;-64
2022/04/17 04:01:28;;;;;;;47.80;24.77;;;4.40;99.90;;;;;;5006741;28;20038;-64
2022/04/17 04:03:54;;;;;;;54.85;27.00;;;4.40;99.90;;;;;;5005798;28;20084;-64
2022/04/17 04:06:21;;;;;;;45.10;24.05;;;4.40;99.90;;;;;;4989217;28;20053;-64
2022/04/17 04:08:48;;;;;;;51.00;25.30;;;4.50;99.90;;;;;;5006243;28;20492;-64
2022/04/17 04:11:18;;;;;;;46.92;24.20;;;4.40;99.90;;;;;;4989478;28;20053;-64
2022/04/17 04:13:44;;;;;;;48.35;26.08;;;4.30;99.90;;;;;;4989124;28;20103;-64
2022/04/17 04:16:10;;;;;;;51.67;24.58;;;4.30;99.90;;;;;;5006944;28;20081;-64
2022/04/17 04:18:35;;;;;;;52.17;26.85;;;4.20;99.90;;;;;;4988565;28;20056;-64
2022/04/17 04:21:03;;;;;;;47.47;25.10;;;4.10;99.90;;;;;;5006339;28;20046;-64
2022/04/17 04:23:35;;;;;;;52.90;25.42;;;4.00;99.90;;;;;;4989227;28;20510;-64
2022/04/17 04:26:03;;;;;;;48.42;24.00;;;3.80;99.90;;;;;;5000456;28;20048;-64
2022/04/17 04:28:38;;;;;;;50.33;24.75;;;3.80;99.90;;;;;;4968485;28;20046;-64
2022/04/17 04:31:12;;;;;;;52.63;24.48;;;3.80;99.90;;;;;;4989053;28;20046;-64
2022/04/17 04:33:39;;;;;;;45.17;24.27;;;3.70;99.90;;;;;;4988577;28;20475;-64
2022/04/17 04:36:07;;;;;;;42.70;22.77;;;3.70;99.90;;;;;;4988979;28;20054;-63
2022/04/17 04:38:33;;;;;;;51.55;25.13;;;3.80;99.90;;;;;;5005840;28;20046;-64
2022/04/17 04:40:59;;;;;;;45.53;22.73;;;3.80;99.90;;;;;;5006924;28;20046;-64
2022/04/17 04:43:26;;;;;;;48.45;22.95;;;3.80;99.90;;;;;;5005841;28;20517;-66
2022/04/17 04:46:07;;;;;;;43.30;23.73;;;3.80;99.90;;;;;;5007023;28;20149;-66
2022/04/17 04:51:26;;;;;;;42.80;21.90;;;4.10;99.90;;;;;;5006008;28;20065;-66
2022/04/17 04:53:52;;;;;;;42.97;22.60;;;4.10;99.90;;;;;;5006886;28;20046;-66
2022/04/17 04:56:19;;;;;;;47.17;22.17;;;4.20;99.90;;;;;;4987686;28;20548;-67
2022/04/17 04:58:45;;;;;;;40.60;21.40;;;4.10;99.90;;;;;;4989319;28;20038;-66
2022/04/17 05:01:11;;;;;;;42.95;22.05;;;4.20;99.90;;;;;;5006122;28;20038;-66
2022/04/17 05:03:37;;;;;;;43.35;21.35;;;4.30;99.90;;;;;;5005994;28;20084;-66
2022/04/17 05:06:03;;;;;;;39.17;21.38;;;4.40;99.90;;;;;;5006615;28;20129;-66
2022/04/17 05:08:29;;;;;;;40.17;21.58;;;4.40;99.90;;;;;;5005791;28;20161;-67
2022/04/17 05:10:55;;;;;;;44.47;21.35;;;4.40;99.90;;;;;;4989391;28;20052;-67
2022/04/17 05:13:21;;;;;;;42.42;21.40;;;4.40;99.90;;;;;;5005497;28;20100;-66
2022/04/17 05:15:47;;;;;;;41.63;20.85;;;4.50;99.90;;;;;;5008831;28;20046;-66
2022/04/17 05:18:13;;;;;;;39.95;20.85;;;4.40;99.90;;;;;;5009755;28;20451;-66
2022/04/17 05:20:39;;;;;;;39.60;20.75;;;4.50;99.90;;;;;;4991998;28;20061;-66
2022/04/17 05:23:18;;;;;;;43.67;19.77;;;4.60;99.90;;;;;;4991988;28;20078;-66
2022/04/17 05:25:47;;;;;;;40.40;19.70;;;4.60;99.90;;;;;;4988583;28;20044;-67
2022/04/17 05:28:14;;;;;;;48.00;19.42;;;4.70;99.90;;;;;;4990298;28;20366;-67
2022/04/17 05:30:40;;;;;;;39.35;19.60;;;4.80;99.90;;;;;;4971924;28;20046;-67
2022/04/17 05:33:06;;;;;;;34.25;19.05;;;5.00;99.70;;;;;;4991507;28;20061;-66
2022/04/17 05:35:32;;;;;;;34.70;18.85;;;5.10;98.90;;;;;;5008730;28;20046;-66
2022/04/17 05:37:57;;;;;;;37.65;18.23;;;5.20;98.80;;;;;;5009410;28;20060;-66
2022/04/17 05:40:23;;;;;;;36.33;18.27;;;5.20;98.90;;;;;;4991148;28;20050;-66
2022/04/17 05:42:49;;;;;;;37.40;17.90;;;5.30;98.30;;;;;;5009570;28;20050;-66
2022/04/17 05:45:15;;;;;;;30.90;17.23;;;5.30;98.30;;;;;;4991929;28;20506;-66
2022/04/17 05:47:41;;;;;;;39.67;18.17;;;5.40;97.70;;;;;;5008672;28;20054;-66
2022/04/17 05:50:07;;;;;;;34.67;17.50;;;5.50;97.30;;;;;;5009825;28;20168;-66
2022/04/17 05:52:33;;;;;;;42.38;19.17;;;5.50;97.80;;;;;;4990863;28;20448;-65
2022/04/17 05:54:59;;;;;;;32.97;17.65;;;5.60;97.80;;;;;;4992160;28;20050;-66
2022/04/17 05:57:25;;;;;;;37.17;18.38;;;5.60;98.00;;;;;;4991030;28;20057;-66
2022/04/17 05:59:51;;;;;;;33.63;18.27;;;5.60;97.00;;;;;;5008973;28;20046;-66
2022/04/17 06:02:17;;;;;;;40.20;19.20;;;5.80;97.70;;;;;;5008846;28;20523;-66
2022/04/17 06:04:43;;;;;;;40.05;17.60;;;5.90;96.40;;;;;;4974317;28;20058;-66
2022/04/17 06:07:11;;;;;;;35.90;18.08;;;6.20;95.70;;;;;;5009464;28;20052;-66
2022/04/17 06:09:37;;;;;;;35.75;16.95;;;6.60;93.10;;;;;;5008084;28;20053;-66
2022/04/17 06:12:03;;;;;;;29.38;15.45;;;6.50;91.90;;;;;;4991640;28;20053;-66
2022/04/17 06:14:29;;;;;;;38.58;17.73;;;6.30;93.20;;;;;;5008409;28;20073;-66
2022/04/17 06:16:54;;;;;;;38.85;17.60;;;6.30;93.80;;;;;;4991455;28;20508;-65
2022/04/17 06:19:20;;;;;;;28.15;14.70;;;6.50;93.50;;;;;;4990845;28;20152;-66
2022/04/17 06:21:46;;;;;;;30.35;16.33;;;6.60;91.70;;;;;;4974294;28;20049;-64
2022/04/17 06:24:12;;;;;;;35.17;15.93;;;6.90;92.80;;;;;;4991329;28;20124;-66
2022/04/17 06:26:38;;;;;;;36.55;16.38;;;7.30;92.10;;;;;;4996239;28;20169;-65
2022/04/17 06:29:07;;;;;;;32.97;16.63;;;7.70;90.80;;;;;;4989350;28;20042;-66
2022/04/17 06:31:34;;;;;;;34.90;16.40;;;7.80;87.30;;;;;;4994289;28;20404;-66
2022/04/17 06:34:00;;;;;;;26.85;14.43;;;7.50;85.30;;;;;;5008841;28;20682;-66
2022/04/17 06:36:26;;;;;;;32.88;16.73;;;7.30;88.30;;;;;;5007695;28;20431;-66
2022/04/17 06:38:52;;;;;;;30.67;14.32;;;7.30;91.50;;;;;;4990767;28;20053;-66
2022/04/17 06:41:17;;;;;;;25.70;13.65;;;7.30;93.60;;;;;;5008443;28;20049;-66
2022/04/17 06:43:43;;;;;;;27.25;14.10;;;7.40;91.50;;;;;;5007850;28;20631;-66
2022/04/17 06:46:09;;;;;;;31.58;14.23;;;7.40;91.90;;;;;;5008573;28;20058;-65
2022/04/17 06:48:34;;;;;;;24.33;13.93;;;7.50;90.40;;;;;;4989857;28;20121;-66
2022/04/17 06:51:00;;;;;;;22.50;12.70;;;7.60;91.30;;;;;;5008728;28;20507;-66
2022/04/17 06:53:26;;;;;;;32.05;14.95;;;7.70;90.30;;;;;;5007309;28;20057;-66
2022/04/17 06:55:52;;;;;;;29.33;15.25;;;7.80;91.50;;;;;;5008005;28;20495;-65
2022/04/17 06:58:21;;;;;;;30.80;14.93;;;7.90;91.90;;;;;;5007806;28;20081;-66
2022/04/17 07:00:48;;;;;;;36.15;15.52;;;8.00;90.60;;;;;;4987564;28;20389;-66
2022/04/17 07:03:14;;;;;;;23.10;12.93;;;8.20;90.40;;;;;;4969035;28;20516;-66
2022/04/17 07:05:41;;;;;;;28.10;14.80;;;8.40;82.90;;;;;;4968057;28;20047;-66
2022/04/17 07:08:07;;;;;;;32.08;14.77;;;8.60;86.50;;;;;;4952391;28;20035;-66
2022/04/17 07:10:37;;;;;;;29.50;14.65;;;8.80;86.70;;;;;;4985157;28;20512;-66
2022/04/17 07:13:15;;;;;;;27.42;14.07;;;9.10;80.60;;;;;;4970907;28;20039;-64
2022/04/17 07:15:40;;;;;;;28.33;14.93;;;9.20;77.80;;;;;;4987153;28;20074;-64
2022/04/17 07:18:06;;;;;;;32.53;16.30;;;9.30;74.20;;;;;;4988202;28;20082;-63
2022/04/17 07:20:32;;;;;;;36.78;17.27;;;9.50;80.80;;;;;;4987732;28;20397;-63
2022/04/17 07:23:00;;;;;;;32.92;17.30;;;9.70;78.00;;;;;;4987764;28;20082;-64
2022/04/17 07:25:25;;;;;;;30.00;17.27;;;10.00;75.10;;;;;;4970498;28;20531;-64
2022/04/17 07:27:51;;;;;;;33.00;17.80;;;10.10;76.90;;;;;;4987440;28;20438;-64
2022/04/17 07:30:20;;;;;;;29.58;15.48;;;10.20;73.40;;;;;;4988111;28;20125;-63
2022/04/17 07:32:51;;;;;;;34.83;15.93;;;10.30;70.00;;;;;;4984055;28;20050;-64
2022/04/17 07:35:18;;;;;;;35.03;16.42;;;10.40;71.90;;;;;;4969881;28;20039;-63
2022/04/17 07:38:04;;;;;;;30.65;15.43;;;10.40;64.20;;;;;;5003628;28;20502;-64
2022/04/17 07:40:31;;;;;;;30.05;15.68;;;10.50;65.70;;;;;;5006094;28;20104;-64
2022/04/17 07:42:59;;;;;;;35.03;15.60;;;10.60;66.70;;;;;;5007352;28;20049;-63
2022/04/17 07:45:25;;;;;;;27.40;14.65;;;10.80;69.00;;;;;;5006801;28;20584;-63
2022/04/17 07:47:51;;;;;;;28.75;15.00;;;10.90;63.20;;;;;;5006929;28;20042;-63
2022/04/17 07:50:23;;;;;;;28.73;15.85;;;11.00;69.90;;;;;;4989273;28;20075;-63
2022/04/17 07:52:49;;;;;;;26.27;13.98;;;11.10;65.90;;;;;;5006877;28;20045;-63
2022/04/17 07:55:16;;;;;;;31.95;14.85;;;11.30;68.60;;;;;;5007368;28;20082;-63
2022/04/17 07:57:59;;;;;;;25.45;14.07;;;11.50;69.50;;;;;;5005760;28;20037;-64
2022/04/17 08:00:27;;;;;;;26.35;14.27;;;11.70;72.10;;;;;;5005606;28;20447;-64
2022/04/17 08:03:06;;;;;;;25.27;14.65;;;11.70;61.30;;;;;;5006811;28;20048;-64
2022/04/17 08:05:35;;;;;;;25.08;13.90;;;11.70;63.20;;;;;;5006315;28;20050;-64
2022/04/17 08:08:01;;;;;;;25.30;14.15;;;11.90;59.70;;;;;;5006695;28;20053;-64
2022/04/17 08:10:27;;;;;;;29.70;14.05;;;11.90;64.50;;;;;;5006635;28;20034;-64
2022/04/17 08:12:54;;;;;;;24.08;13.68;;;11.80;56.20;;;;;;4972827;28;20046;-65
2022/04/17 08:15:20;;;;;;;28.23;13.98;;;11.90;66.00;;;;;;4988497;28;20046;-64
2022/04/17 08:17:46;;;;;;;26.38;13.65;;;12.00;68.40;;;;;;4988827;28;20049;-64
2022/04/17 08:20:11;;;;;;;23.02;12.25;;;12.00;59.80;;;;;;5006289;28;20143;-64
2022/04/17 08:22:37;;;;;;;26.20;13.30;;;12.10;67.40;;;;;;5006460;28;20508;-64
2022/04/17 08:25:03;;;;;;;20.48;10.55;;;12.30;68.80;;;;;;5005228;28;20065;-64
2022/04/17 08:27:29;;;;;;;19.02;10.75;;;12.20;54.00;;;;;;4988236;28;20057;-64
2022/04/17 08:29:58;;;;;;;15.05;8.40;;;12.50;59.40;;;;;;4987548;28;20073;-64
2022/04/17 08:32:24;;;;;;;14.88;8.60;;;12.80;53.60;;;;;;4999565;28;20484;-64
2022/04/17 08:34:49;;;;;;;11.95;6.97;;;13.00;38.90;;;;;;4989244;28;20097;-64
2022/04/17 08:37:15;;;;;;;10.60;6.63;;;13.10;36.00;;;;;;5005613;28;20061;-64
2022/04/17 08:39:41;;;;;;;10.50;6.35;;;13.20;30.00;;;;;;4990361;28;20050;-64
2022/04/17 08:42:08;;;;;;;9.07;6.28;;;13.20;36.90;;;;;;4969077;28;20096;-64
2022/04/17 08:44:34;;;;;;;9.32;5.93;;;13.40;42.50;;;;;;4969075;28;20050;-65
2022/04/17 08:46:59;;;;;;;11.25;5.50;;;13.60;26.60;;;;;;4968688;28;20521;-65
2022/04/17 08:49:25;;;;;;;7.25;5.28;;;13.40;25.20;;;;;;4977874;28;20047;-65
2022/04/17 08:51:53;;;;;;;8.15;5.55;;;13.30;25.70;;;;;;4971094;28;20078;-65
2022/04/17 08:54:21;;;;;;;9.52;5.20;;;13.30;25.60;;;;;;4974018;28;20042;-65
2022/04/17 08:56:47;;;;;;;7.18;4.65;;;13.50;28.40;;;;;;4972825;28;20405;-64
2022/04/17 08:59:15;;;;;;;8.63;5.38;;;13.70;27.90;;;;;;4990110;28;20038;-65
2022/04/17 09:01:40;;;;;;;6.57;4.50;;;13.90;26.60;;;;;;4983472;28;20046;-65
2022/04/17 09:04:06;;;;;;;8.82;5.70;;;14.00;21.90;;;;;;4971729;28;20402;-65
2022/04/17 09:06:35;;;;;;;7.88;5.35;;;14.10;21.00;;;;;;4967812;28;20042;-64
2022/04/17 09:09:03;;;;;;;7.47;4.60;;;14.10;21.40;;;;;;4987081;28;20121;-64
2022/04/17 09:11:31;;;;;;;7.75;4.80;;;14.20;21.20;;;;;;4987273;28;20513;-64
2022/04/17 09:14:01;;;;;;;6.70;4.43;;;14.20;19.10;;;;;;4971052;28;20050;-64
2022/04/17 09:16:50;;;;;;;6.00;5.10;;;14.20;19.40;;;;;;4987217;28;20489;-64
2022/04/17 09:19:19;;;;;;;11.23;5.47;;;14.40;20.50;;;;;;4987624;28;20084;-64
2022/04/17 09:21:45;;;;;;;6.57;4.50;;;14.40;20.00;;;;;;4987398;28;20528;-64
2022/04/17 09:24:15;;;;;;;7.18;4.95;;;14.50;19.50;;;;;;4986367;28;20203;-64
2022/04/17 09:26:51;;;;;;;11.48;5.30;;;14.50;21.40;;;;;;4988077;28;20041;-64
2022/04/17 09:29:24;;;;;;;6.90;5.22;;;14.60;20.20;;;;;;4987960;28;20050;-64
2022/04/17 09:32:07;;;;;;;7.13;4.72;;;14.50;18.30;;;;;;4978478;28;20073;-64
2022/04/17 09:34:52;;;;;;;5.35;4.38;;;14.40;18.60;;;;;;5007291;28;20046;-65
2022/04/17 09:37:19;;;;;;;5.68;4.50;;;14.60;17.10;;;;;;4997762;28;20054;-65
2022/04/17 09:39:46;;;;;;;7.45;5.25;;;14.50;17.70;;;;;;5007497;28;20038;-64
2022/04/17 09:42:13;;;;;;;6.35;5.20;;;14.60;16.50;;;;;;4989152;28;20034;-64
2022/04/17 09:44:45;;;;;;;7.13;5.03;;;14.80;17.40;;;;;;5008079;28;20050;-64
2022/04/17 09:47:31;;;;;;;7.07;4.60;;;15.00;17.80;;;;;;5008917;28;20061;-64
2022/04/17 09:50:01;;;;;;;6.22;4.93;;;15.00;16.50;;;;;;5007682;28;20398;-64
2022/04/17 09:52:32;;;;;;;10.00;4.53;;;15.20;17.80;;;;;;5005165;28;20412;-65
2022/04/17 09:55:03;;;;;;;8.32;4.50;;;15.30;17.10;;;;;;4989086;28;20921;-65
2022/04/17 09:57:29;;;;;;;6.43;4.40;;;15.30;15.10;;;;;;4995419;28;20060;-65
2022/04/17 10:00:18;;;;;;;8.80;4.50;;;15.40;14.70;;;;;;5005956;28;20049;-65
2022/04/17 10:02:48;;;;;;;6.93;4.18;;;15.40;16.40;;;;;;4986484;28;20504;-64
2022/04/17 10:05:16;;;;;;;5.57;4.70;;;15.60;16.30;;;;;;5006994;28;20042;-65
2022/04/17 10:07:44;;;;;;;6.15;5.00;;;15.60;14.40;;;;;;5005270;28;20463;-65
2022/04/17 10:10:12;;;;;;;6.72;4.30;;;15.40;15.90;;;;;;5006117;28;20053;-66
2022/04/17 10:12:46;;;;;;;5.50;3.85;;;15.30;12.10;;;;;;4989061;28;20089;-65
2022/04/17 10:15:13;;;;;;;4.43;3.97;;;15.20;15.70;;;;;;5007166;28;20081;-66
2022/04/17 10:17:44;;;;;;;4.65;4.22;;;15.20;13.10;;;;;;5008282;28;20089;-65
2022/04/17 10:20:12;;;;;;;5.35;3.70;;;15.20;13.20;;;;;;4990165;28;20053;-65
2022/04/17 10:22:40;;;;;;;5.22;3.85;;;15.30;12.00;;;;;;4975169;28;20046;-65
2022/04/17 10:25:10;;;;;;;7.88;3.95;;;15.30;14.10;;;;;;5007666;28;20627;-65
2022/04/17 10:27:46;;;;;;;4.50;4.10;;;15.40;11.50;;;;;;4987263;28;20046;-66
2022/04/17 10:30:21;;;;;;;4.18;3.83;;;15.50;12.20;;;;;;4998657;28;20050;-65
2022/04/17 10:32:52;;;;;;;8.82;3.67;;;15.60;11.40;;;;;;4990401;28;20080;-66
2022/04/17 10:35:50;;;;;;;5.57;3.85;;;15.60;9.20;;;;;;4990739;28;20041;-68
2022/04/17 10:38:40;;;;;;;4.47;3.65;;;15.40;10.60;;;;;;4947917;28;20061;-65
2022/04/17 10:41:08;;;;;;;5.15;3.67;;;15.40;9.20;;;;;;4981509;28;20493;-65
2022/04/17 10:43:46;;;;;;;5.70;3.63;;;15.50;10.00;;;;;;4981864;28;20466;-65
2022/04/17 10:46:14;;;;;;;5.72;4.00;;;15.70;10.60;;;;;;4966604;28;20042;-65
2022/04/17 10:48:50;;;;;;;6.20;3.85;;;15.80;8.70;;;;;;4951497;28;20397;-65
2022/04/17 10:51:26;;;;;;;6.28;3.65;;;15.90;10.50;;;;;;4973607;28;20069;-66
2022/04/17 10:53:59;;;;;;;4.20;3.33;;;16.10;10.70;;;;;;4962967;28;20041;-66
2022/04/17 10:56:26;;;;;;;3.95;3.40;;;15.90;6.50;;;;;;4982753;28;20043;-67
2022/04/17 10:58:55;;;;;;;6.28;3.70;;;15.60;8.40;;;;;;4980610;28;20076;-65
2022/04/17 11:01:41;;;;;;;;;;;15.70;10.50;;;;;;4980401;28;20046;-65
2022/04/17 11:04:27;;;;;;;5.22;3.63;;;15.80;8.70;;;;;;4951730;28;20335;-65
2022/04/17 11:07:09;;;;;;;9.80;3.42;;;15.80;6.60;;;;;;4978989;28;20046;-65
2022/04/17 11:09:42;;;;;;;5.15;3.88;;;15.80;7.10;;;;;;4979225;28;20062;-65
2022/04/17 11:12:17;;;;;;;5.38;4.00;;;15.90;8.00;;;;;;4984184;28;20039;-65
2022/04/17 11:14:53;;;;;;;7.40;3.40;;;15.90;9.40;;;;;;4969537;28;20058;-65
2022/04/17 11:17:21;;;;;;;6.53;4.75;;;15.90;6.00;;;;;;4986385;28;20042;-65
2022/04/17 11:19:48;;;;;;;4.78;3.22;;;15.90;7.10;;;;;;4975305;28;20078;-66
2022/04/17 11:22:17;;;;;;;4.60;3.55;;;15.80;6.40;;;;;;4984873;28;20050;-65
2022/04/17 11:24:54;;;;;;;4.57;3.67;;;16.00;7.10;;;;;;4984813;28;20752;-65
2022/04/17 11:27:50;;;;;;;4.22;3.40;;;16.10;9.70;;;;;;4968750;28;20051;-66
2022/04/17 11:30:16;;;;;;;3.53;3.22;;;16.10;9.30;;;;;;4985818;28;20063;-65
2022/04/17 11:32:41;;;;;;;4.75;3.95;;;16.20;5.80;;;;;;4948238;28;20038;-66
2022/04/17 11:35:11;;;;;;;5.03;3.55;;;16.10;7.00;;;;;;4969036;28;20130;-66
2022/04/17 11:37:38;;;;;;;7.35;4.85;;;16.20;8.20;;;;;;4999955;28;20125;-65
2022/04/17 11:40:12;;;;;;;9.57;4.95;;;16.30;10.00;;;;;;4973149;28;20125;-66
2022/04/17 11:42:46;;;;;;;8.55;4.82;;;16.20;11.30;;;;;;4983233;28;20435;-65
2022/04/17 11:45:22;;;;;;;5.78;4.93;;;16.10;12.50;;;;;;5004578;28;20045;-65
2022/04/17 11:47:49;;;;;;;6.00;4.90;;;16.20;13.70;;;;;;4971590;28;20044;-65
2022/04/17 11:50:26;;;;;;;7.53;5.13;;;15.90;13.50;;;;;;5004751;28;20057;-65
2022/04/17 11:52:56;;;;;;;6.38;4.95;;;15.80;18.40;;;;;;4985857;28;20050;-66
2022/04/17 11:55:33;;;;;;;7.13;4.47;;;15.70;18.40;;;;;;4998762;28;20040;-66
2022/04/17 11:58:00;;;;;;;4.28;3.83;;;15.80;16.20;;;;;;4978688;28;20163;-66
2022/04/17 12:00:27;;;;;;;6.75;4.07;;;16.00;9.30;;;;;;5005749;28;20077;-66
2022/04/17 12:03:02;;;;;;;5.07;4.57;;;16.20;11.70;;;;;;4985422;28;20557;-65
2022/04/17 12:05:30;;;;;;;5.57;4.32;;;16.30;13.00;;;;;;5005132;28;20080;-65
2022/04/17 12:08:11;;;;;;;5.68;3.85;;;16.10;14.10;;;;;;5004919;28;20069;-65
2022/04/17 12:10:52;;;;;;;4.97;4.43;;;16.10;11.60;;;;;;5006419;28;20583;-65
2022/04/17 12:13:20;;;;;;;5.78;4.00;;;16.00;14.20;;;;;;5005288;28;20067;-65
2022/04/17 12:15:57;;;;;;;5.97;4.22;;;15.90;14.40;;;;;;4989045;28;20496;-65
2022/04/17 12:18:22;;;;;;;3.70;3.20;;;15.90;16.80;;;;;;5006095;28;20100;-65
2022/04/17 12:20:56;;;;;;;6.75;3.20;;;16.00;9.30;;;;;;5006029;28;20046;-65
2022/04/17 12:23:24;;;;;;;5.00;3.40;;;16.10;10.80;;;;;;4989111;28;20093;-65
2022/04/17 12:25:50;;;;;;;5.97;2.95;;;16.40;9.30;;;;;;4987744;28;20049;-65
2022/04/17 12:28:16;;;;;;;5.63;2.72;;;16.70;10.20;;;;;;5006861;28;20068;-65
2022/04/17 12:30:42;;;;;;;6.63;3.03;;;16.80;6.30;;;;;;4988307;28;20485;-65
2022/04/17 12:33:26;;;;;;;3.70;2.53;;;16.80;6.50;;;;;;4988371;28;20042;-65
2022/04/17 12:36:08;;;;;;;2.63;2.42;;;16.80;5.50;;;;;;5005269;28;20038;-66
2022/04/17 12:38:35;;;;;;;3.85;2.63;;;16.80;7.40;;;;;;5006327;28;20116;-66
2022/04/17 12:41:15;;;;;;;3.83;2.55;;;16.60;3.50;;;;;;5006374;28;20046;-65
2022/04/17 12:43:41;;;;;;;;;;;16.50;7.10;;;;;;4988750;28;20038;-65
2022/04/17 12:46:06;;;;;;;3.85;3.05;;;16.60;4.00;;;;;;4988606;28;20004;-66
2022/04/17 12:48:34;;;;;;;3.70;2.45;;;16.60;4.60;;;;;;4986374;28;20481;-65
2022/04/17 12:51:03;;;;;;;2.63;2.28;;;16.60;6.80;;;;;;4936337;28;20097;-66
2022/04/17 12:53:43;;;;;;;2.90;2.22;;;16.70;5.70;;;;;;4977691;28;20144;-66
2022/04/17 12:56:11;;;;;;;2.75;2.47;;;16.90;6.40;;;;;;4999338;28;20041;-66
2022/04/17 12:58:59;;;;;;;2.60;2.33;;;16.90;7.50;;;;;;4997620;28;20422;-65
2022/04/17 13:01:27;;;;;;;5.28;2.47;;;17.00;6.30;;;;;;5002875;28;20049;-65
2022/04/17 13:04:10;;;;;;;2.85;2.65;;;17.10;5.60;;;;;;4965716;28;20043;-65